sensor_id;sensor_type;location;lat;lon;timestamp;P1;durP1;ratioP1;P2;durP2;ratioP2
11699;SDS011;5906;51.660;6.674;2023-07-02T00:02:26;7.73;;;5.20;;
11699;SDS011;5906;51.660;6.674;2023-07-02T00:04:53;8.27;;;5.77;;
11699;SDS011;5906;51.660;6.674;2023-07-02T00:07:20;9.50;;;5.90;;
11699;SDS011;5906;51.660;6.674;2023-07-02T00:09:47;14.70;;;6.10;;
11699;SDS011;5906;51.660;6.674;2023-07-02T00:12:14;12.90;;;6.40;;
11699;SDS011;5906;51.660;6.674;2023-07-02T00:14:41;10.90;;;5.63;;
11699;SDS011;5906;51.660;6.674;2023-07-02T00:17:08;16.73;;;5.70;;
11699;SDS011;5906;51.660;6.674;2023-07-02T00:19:39;9.87;;;5.93;;
11699;SDS011;5906;51.660;6.674;2023-07-02T00:22:08;10.83;;;6.10;;
11699;SDS011;5906;51.660;6.674;2023-07-02T00:24:35;11.53;;;5.47;;
11699;SDS011;5906;51.660;6.674;2023-07-02T00:27:03;10.47;;;5.50;;
11699;SDS011;5906;51.660;6.674;2023-07-02T00:29:30;10.63;;;5.43;;
11699;SDS011;5906;51.660;6.674;2023-07-02T00:31:56;10.23;;;5.80;;
11699;SDS011;5906;51.660;6.674;2023-07-02T00:34:23;13.37;;;6.30;;
11699;SDS011;5906;51.660;6.674;2023-07-02T00:36:51;9.60;;;5.80;;
11699;SDS011;5906;51.660;6.674;2023-07-02T00:39:18;11.70;;;6.60;;
11699;SDS011;5906;51.660;6.674;2023-07-02T00:41:45;15.50;;;7.50;;
11699;SDS011;5906;51.660;6.674;2023-07-02T00:44:13;11.20;;;7.00;;
11699;SDS011;5906;51.660;6.674;2023-07-02T00:46:40;25.10;;;8.07;;
11699;SDS011;5906;51.660;6.674;2023-07-02T00:49:07;24.10;;;7.67;;
11699;SDS011;5906;51.660;6.674;2023-07-02T00:51:37;20.30;;;9.57;;
11699;SDS011;5906;51.660;6.674;2023-07-02T00:54:04;28.70;;;8.43;;
11699;SDS011;5906;51.660;6.674;2023-07-02T00:56:31;13.47;;;7.00;;
11699;SDS011;5906;51.660;6.674;2023-07-02T00:58:58;16.40;;;6.43;;
11699;SDS011;5906;51.660;6.674;2023-07-02T01:01:27;11.80;;;6.53;;
11699;SDS011;5906;51.660;6.674;2023-07-02T01:03:59;11.70;;;6.43;;
11699;SDS011;5906;51.660;6.674;2023-07-02T01:06:31;10.53;;;5.67;;
11699;SDS011;5906;51.660;6.674;2023-07-02T01:09:00;15.30;;;6.50;;
11699;SDS011;5906;51.660;6.674;2023-07-02T01:11:41;13.63;;;6.10;;
11699;SDS011;5906;51.660;6.674;2023-07-02T01:14:19;15.33;;;6.87;;
11699;SDS011;5906;51.660;6.674;2023-07-02T01:16:49;12.73;;;6.60;;
11699;SDS011;5906;51.660;6.674;2023-07-02T01:19:18;14.10;;;6.40;;
11699;SDS011;5906;51.660;6.674;2023-07-02T01:21:49;12.23;;;6.23;;
11699;SDS011;5906;51.660;6.674;2023-07-02T01:24:16;16.47;;;6.80;;
11699;SDS011;5906;51.660;6.674;2023-07-02T01:26:44;16.87;;;6.33;;
11699;SDS011;5906;51.660;6.674;2023-07-02T01:29:18;15.97;;;6.30;;
11699;SDS011;5906;51.660;6.674;2023-07-02T01:31:47;10.90;;;5.97;;
11699;SDS011;5906;51.660;6.674;2023-07-02T01:34:14;11.80;;;6.40;;
11699;SDS011;5906;51.660;6.674;2023-07-02T01:36:41;15.70;;;6.80;;
11699;SDS011;5906;51.660;6.674;2023-07-02T01:39:08;17.73;;;7.23;;
11699;SDS011;5906;51.660;6.674;2023-07-02T01:41:48;10.13;;;5.93;;
11699;SDS011;5906;51.660;6.674;2023-07-02T01:44:17;14.10;;;6.93;;
11699;SDS011;5906;51.660;6.674;2023-07-02T01:46:45;23.13;;;6.37;;
11699;SDS011;5906;51.660;6.674;2023-07-02T01:49:15;17.33;;;6.97;;
11699;SDS011;5906;51.660;6.674;2023-07-02T01:51:50;14.93;;;6.30;;
11699;SDS011;5906;51.660;6.674;2023-07-02T01:54:18;12.20;;;6.50;;
11699;SDS011;5906;51.660;6.674;2023-07-02T01:56:46;16.83;;;6.97;;
11699;SDS011;5906;51.660;6.674;2023-07-02T01:59:13;13.77;;;6.90;;
11699;SDS011;5906;51.660;6.674;2023-07-02T02:01:40;17.30;;;6.90;;
11699;SDS011;5906;51.660;6.674;2023-07-02T02:04:08;15.70;;;6.77;;
11699;SDS011;5906;51.660;6.674;2023-07-02T02:06:36;16.10;;;6.70;;
11699;SDS011;5906;51.660;6.674;2023-07-02T02:09:04;22.40;;;8.37;;
11699;SDS011;5906;51.660;6.674;2023-07-02T02:11:32;19.30;;;6.97;;
11699;SDS011;5906;51.660;6.674;2023-07-02T02:14:00;21.13;;;8.40;;
11699;SDS011;5906;51.660;6.674;2023-07-02T02:16:27;23.63;;;8.60;;
11699;SDS011;5906;51.660;6.674;2023-07-02T02:18:55;14.50;;;7.37;;
11699;SDS011;5906;51.660;6.674;2023-07-02T02:21:21;19.53;;;8.40;;
11699;SDS011;5906;51.660;6.674;2023-07-02T02:23:48;22.80;;;8.73;;
11699;SDS011;5906;51.660;6.674;2023-07-02T02:26:16;19.40;;;8.30;;
11699;SDS011;5906;51.660;6.674;2023-07-02T02:28:43;23.17;;;8.93;;
11699;SDS011;5906;51.660;6.674;2023-07-02T02:31:10;23.73;;;9.70;;
11699;SDS011;5906;51.660;6.674;2023-07-02T02:33:38;21.60;;;8.30;;
11699;SDS011;5906;51.660;6.674;2023-07-02T02:36:05;24.17;;;9.00;;
11699;SDS011;5906;51.660;6.674;2023-07-02T02:38:32;17.53;;;8.30;;
11699;SDS011;5906;51.660;6.674;2023-07-02T02:41:00;17.17;;;8.40;;
11699;SDS011;5906;51.660;6.674;2023-07-02T02:43:28;18.10;;;8.10;;
11699;SDS011;5906;51.660;6.674;2023-07-02T02:45:55;22.97;;;7.43;;
11699;SDS011;5906;51.660;6.674;2023-07-02T02:48:22;17.87;;;7.00;;
11699;SDS011;5906;51.660;6.674;2023-07-02T02:50:49;18.33;;;7.00;;
11699;SDS011;5906;51.660;6.674;2023-07-02T02:53:17;19.03;;;6.33;;
11699;SDS011;5906;51.660;6.674;2023-07-02T02:55:44;19.80;;;7.53;;
11699;SDS011;5906;51.660;6.674;2023-07-02T02:58:11;15.50;;;7.30;;
11699;SDS011;5906;51.660;6.674;2023-07-02T03:00:38;17.47;;;7.50;;
11699;SDS011;5906;51.660;6.674;2023-07-02T03:03:09;16.73;;;7.17;;
11699;SDS011;5906;51.660;6.674;2023-07-02T03:05:36;14.47;;;7.50;;
11699;SDS011;5906;51.660;6.674;2023-07-02T03:08:03;21.37;;;7.73;;
11699;SDS011;5906;51.660;6.674;2023-07-02T03:10:30;16.00;;;6.57;;
11699;SDS011;5906;51.660;6.674;2023-07-02T03:12:57;19.60;;;6.80;;
11699;SDS011;5906;51.660;6.674;2023-07-02T03:15:24;22.73;;;6.90;;
11699;SDS011;5906;51.660;6.674;2023-07-02T03:17:51;15.83;;;6.53;;
11699;SDS011;5906;51.660;6.674;2023-07-02T03:20:18;20.27;;;7.23;;
11699;SDS011;5906;51.660;6.674;2023-07-02T03:22:46;21.27;;;7.10;;
11699;SDS011;5906;51.660;6.674;2023-07-02T03:25:12;14.03;;;6.90;;
11699;SDS011;5906;51.660;6.674;2023-07-02T03:27:40;22.13;;;7.10;;
11699;SDS011;5906;51.660;6.674;2023-07-02T03:30:07;17.03;;;6.27;;
11699;SDS011;5906;51.660;6.674;2023-07-02T03:32:34;15.00;;;6.40;;
11699;SDS011;5906;51.660;6.674;2023-07-02T03:35:01;14.53;;;6.30;;
11699;SDS011;5906;51.660;6.674;2023-07-02T03:37:28;19.97;;;7.00;;
11699;SDS011;5906;51.660;6.674;2023-07-02T03:39:55;15.97;;;6.40;;
11699;SDS011;5906;51.660;6.674;2023-07-02T03:42:24;18.73;;;7.00;;
11699;SDS011;5906;51.660;6.674;2023-07-02T03:44:51;18.73;;;7.23;;
11699;SDS011;5906;51.660;6.674;2023-07-02T03:47:18;19.33;;;7.37;;
11699;SDS011;5906;51.660;6.674;2023-07-02T03:49:46;15.20;;;7.30;;
11699;SDS011;5906;51.660;6.674;2023-07-02T03:52:14;16.37;;;6.73;;
11699;SDS011;5906;51.660;6.674;2023-07-02T03:54:41;16.20;;;6.30;;
11699;SDS011;5906;51.660;6.674;2023-07-02T03:57:08;9.73;;;5.77;;
11699;SDS011;5906;51.660;6.674;2023-07-02T03:59:35;15.33;;;7.87;;
11699;SDS011;5906;51.660;6.674;2023-07-02T04:02:02;25.20;;;7.30;;
11699;SDS011;5906;51.660;6.674;2023-07-02T04:04:29;18.73;;;6.93;;
11699;SDS011;5906;51.660;6.674;2023-07-02T04:06:56;23.30;;;7.07;;
11699;SDS011;5906;51.660;6.674;2023-07-02T04:09:23;15.63;;;7.00;;
11699;SDS011;5906;51.660;6.674;2023-07-02T04:11:50;23.07;;;7.33;;
11699;SDS011;5906;51.660;6.674;2023-07-02T04:14:16;15.53;;;7.37;;
11699;SDS011;5906;51.660;6.674;2023-07-02T04:16:44;18.37;;;7.43;;
11699;SDS011;5906;51.660;6.674;2023-07-02T04:19:11;15.20;;;7.00;;
11699;SDS011;5906;51.660;6.674;2023-07-02T04:21:38;18.67;;;7.90;;
11699;SDS011;5906;51.660;6.674;2023-07-02T04:24:05;22.03;;;9.03;;
11699;SDS011;5906;51.660;6.674;2023-07-02T04:26:32;16.60;;;6.70;;
11699;SDS011;5906;51.660;6.674;2023-07-02T04:29:19;19.43;;;7.97;;
11699;SDS011;5906;51.660;6.674;2023-07-02T04:31:46;17.60;;;6.43;;
11699;SDS011;5906;51.660;6.674;2023-07-02T04:34:13;15.10;;;7.53;;
11699;SDS011;5906;51.660;6.674;2023-07-02T04:36:41;16.83;;;6.37;;
11699;SDS011;5906;51.660;6.674;2023-07-02T04:39:08;12.40;;;6.77;;
11699;SDS011;5906;51.660;6.674;2023-07-02T04:41:37;19.93;;;8.30;;
11699;SDS011;5906;51.660;6.674;2023-07-02T04:44:04;21.73;;;9.30;;
11699;SDS011;5906;51.660;6.674;2023-07-02T04:46:31;24.33;;;9.00;;
11699;SDS011;5906;51.660;6.674;2023-07-02T04:48:58;20.17;;;9.60;;
11699;SDS011;5906;51.660;6.674;2023-07-02T04:51:25;22.63;;;9.97;;
11699;SDS011;5906;51.660;6.674;2023-07-02T04:53:52;24.17;;;10.40;;
11699;SDS011;5906;51.660;6.674;2023-07-02T04:56:19;30.30;;;12.63;;
11699;SDS011;5906;51.660;6.674;2023-07-02T04:58:46;30.73;;;11.57;;
11699;SDS011;5906;51.660;6.674;2023-07-02T05:01:13;25.27;;;11.93;;
11699;SDS011;5906;51.660;6.674;2023-07-02T05:03:40;28.63;;;12.43;;
11699;SDS011;5906;51.660;6.674;2023-07-02T05:06:07;31.57;;;12.87;;
11699;SDS011;5906;51.660;6.674;2023-07-02T05:08:34;26.80;;;13.00;;
11699;SDS011;5906;51.660;6.674;2023-07-02T05:11:03;33.67;;;12.40;;
11699;SDS011;5906;51.660;6.674;2023-07-02T05:13:30;38.50;;;13.03;;
11699;SDS011;5906;51.660;6.674;2023-07-02T05:15:57;33.10;;;13.47;;
11699;SDS011;5906;51.660;6.674;2023-07-02T05:18:24;29.43;;;12.33;;
11699;SDS011;5906;51.660;6.674;2023-07-02T05:20:51;29.40;;;12.70;;
11699;SDS011;5906;51.660;6.674;2023-07-02T05:23:18;24.20;;;11.40;;
11699;SDS011;5906;51.660;6.674;2023-07-02T05:25:45;30.23;;;13.47;;
11699;SDS011;5906;51.660;6.674;2023-07-02T05:28:12;28.13;;;12.63;;
11699;SDS011;5906;51.660;6.674;2023-07-02T05:30:39;27.63;;;11.37;;
11699;SDS011;5906;51.660;6.674;2023-07-02T05:33:07;34.13;;;12.73;;
11699;SDS011;5906;51.660;6.674;2023-07-02T05:35:34;23.80;;;12.40;;
11699;SDS011;5906;51.660;6.674;2023-07-02T05:38:01;23.50;;;11.90;;
11699;SDS011;5906;51.660;6.674;2023-07-02T05:40:28;38.20;;;12.33;;
11699;SDS011;5906;51.660;6.674;2023-07-02T05:42:55;36.57;;;13.77;;
11699;SDS011;5906;51.660;6.674;2023-07-02T05:45:22;29.70;;;12.50;;
11699;SDS011;5906;51.660;6.674;2023-07-02T05:47:49;29.80;;;12.10;;
11699;SDS011;5906;51.660;6.674;2023-07-02T05:50:16;34.93;;;12.20;;
11699;SDS011;5906;51.660;6.674;2023-07-02T05:52:43;25.57;;;10.57;;
11699;SDS011;5906;51.660;6.674;2023-07-02T05:55:11;24.37;;;10.40;;
11699;SDS011;5906;51.660;6.674;2023-07-02T05:57:38;28.50;;;10.43;;
11699;SDS011;5906;51.660;6.674;2023-07-02T06:00:05;24.83;;;10.53;;
11699;SDS011;5906;51.660;6.674;2023-07-02T06:02:34;22.77;;;8.77;;
11699;SDS011;5906;51.660;6.674;2023-07-02T06:05:01;23.33;;;9.83;;
11699;SDS011;5906;51.660;6.674;2023-07-02T06:07:28;28.57;;;9.60;;
11699;SDS011;5906;51.660;6.674;2023-07-02T06:09:55;21.67;;;9.00;;
11699;SDS011;5906;51.660;6.674;2023-07-02T06:12:22;30.77;;;9.77;;
11699;SDS011;5906;51.660;6.674;2023-07-02T06:14:49;33.17;;;9.17;;
11699;SDS011;5906;51.660;6.674;2023-07-02T06:17:16;23.00;;;9.00;;
11699;SDS011;5906;51.660;6.674;2023-07-02T06:19:44;26.70;;;8.83;;
11699;SDS011;5906;51.660;6.674;2023-07-02T06:22:11;20.97;;;9.60;;
11699;SDS011;5906;51.660;6.674;2023-07-02T06:24:38;22.37;;;8.73;;
11699;SDS011;5906;51.660;6.674;2023-07-02T06:27:05;20.27;;;8.70;;
11699;SDS011;5906;51.660;6.674;2023-07-02T06:29:32;24.33;;;9.10;;
11699;SDS011;5906;51.660;6.674;2023-07-02T06:31:59;27.10;;;8.70;;
11699;SDS011;5906;51.660;6.674;2023-07-02T06:34:26;17.97;;;7.90;;
11699;SDS011;5906;51.660;6.674;2023-07-02T06:36:53;20.50;;;8.60;;
11699;SDS011;5906;51.660;6.674;2023-07-02T06:39:20;21.13;;;8.50;;
11699;SDS011;5906;51.660;6.674;2023-07-02T06:41:47;21.77;;;8.90;;
11699;SDS011;5906;51.660;6.674;2023-07-02T06:44:14;20.57;;;9.47;;
11699;SDS011;5906;51.660;6.674;2023-07-02T06:46:41;22.40;;;8.50;;
11699;SDS011;5906;51.660;6.674;2023-07-02T06:49:08;19.97;;;9.00;;
11699;SDS011;5906;51.660;6.674;2023-07-02T06:51:35;28.17;;;8.37;;
11699;SDS011;5906;51.660;6.674;2023-07-02T06:54:03;21.40;;;9.13;;
11699;SDS011;5906;51.660;6.674;2023-07-02T06:56:30;22.43;;;8.10;;
11699;SDS011;5906;51.660;6.674;2023-07-02T06:58:58;25.73;;;8.37;;
11699;SDS011;5906;51.660;6.674;2023-07-02T07:01:26;22.53;;;8.63;;
11699;SDS011;5906;51.660;6.674;2023-07-02T07:03:53;28.07;;;9.30;;
11699;SDS011;5906;51.660;6.674;2023-07-02T07:06:20;26.33;;;7.63;;
11699;SDS011;5906;51.660;6.674;2023-07-02T07:08:47;24.20;;;9.13;;
11699;SDS011;5906;51.660;6.674;2023-07-02T07:11:14;22.87;;;8.57;;
11699;SDS011;5906;51.660;6.674;2023-07-02T07:13:41;24.87;;;8.80;;
11699;SDS011;5906;51.660;6.674;2023-07-02T07:16:10;33.67;;;9.77;;
11699;SDS011;5906;51.660;6.674;2023-07-02T07:18:37;21.87;;;9.20;;
11699;SDS011;5906;51.660;6.674;2023-07-02T07:21:05;23.50;;;8.33;;
11699;SDS011;5906;51.660;6.674;2023-07-02T07:23:32;25.83;;;8.77;;
11699;SDS011;5906;51.660;6.674;2023-07-02T07:25:59;21.90;;;9.27;;
11699;SDS011;5906;51.660;6.674;2023-07-02T07:28:26;24.63;;;8.77;;
11699;SDS011;5906;51.660;6.674;2023-07-02T07:30:53;37.23;;;8.93;;
11699;SDS011;5906;51.660;6.674;2023-07-02T07:33:20;16.43;;;8.10;;
11699;SDS011;5906;51.660;6.674;2023-07-02T07:35:47;28.43;;;8.80;;
11699;SDS011;5906;51.660;6.674;2023-07-02T07:38:14;20.93;;;8.33;;
11699;SDS011;5906;51.660;6.674;2023-07-02T07:40:42;23.57;;;8.90;;
11699;SDS011;5906;51.660;6.674;2023-07-02T07:43:10;21.57;;;8.23;;
11699;SDS011;5906;51.660;6.674;2023-07-02T07:45:37;22.97;;;8.53;;
11699;SDS011;5906;51.660;6.674;2023-07-02T07:48:05;21.27;;;9.00;;
11699;SDS011;5906;51.660;6.674;2023-07-02T07:50:32;18.30;;;7.40;;
11699;SDS011;5906;51.660;6.674;2023-07-02T07:52:59;23.50;;;7.97;;
11699;SDS011;5906;51.660;6.674;2023-07-02T07:55:26;23.03;;;8.63;;
11699;SDS011;5906;51.660;6.674;2023-07-02T07:57:54;28.10;;;8.67;;
11699;SDS011;5906;51.660;6.674;2023-07-02T08:00:21;24.00;;;7.30;;
11699;SDS011;5906;51.660;6.674;2023-07-02T08:02:49;19.47;;;8.47;;
11699;SDS011;5906;51.660;6.674;2023-07-02T08:05:18;19.17;;;8.10;;
11699;SDS011;5906;51.660;6.674;2023-07-02T08:07:45;19.50;;;6.93;;
11699;SDS011;5906;51.660;6.674;2023-07-02T08:10:12;13.03;;;6.90;;
11699;SDS011;5906;51.660;6.674;2023-07-02T08:12:39;14.90;;;7.13;;
11699;SDS011;5906;51.660;6.674;2023-07-02T08:15:07;22.90;;;6.23;;
11699;SDS011;5906;51.660;6.674;2023-07-02T08:17:34;14.87;;;6.60;;
11699;SDS011;5906;51.660;6.674;2023-07-02T08:20:02;21.20;;;6.80;;
11699;SDS011;5906;51.660;6.674;2023-07-02T08:22:30;16.43;;;7.00;;
11699;SDS011;5906;51.660;6.674;2023-07-02T08:24:57;10.10;;;5.47;;
11699;SDS011;5906;51.660;6.674;2023-07-02T08:27:24;18.50;;;6.47;;
11699;SDS011;5906;51.660;6.674;2023-07-02T08:29:52;17.10;;;6.47;;
11699;SDS011;5906;51.660;6.674;2023-07-02T08:32:19;13.30;;;5.60;;
11699;SDS011;5906;51.660;6.674;2023-07-02T08:34:46;12.93;;;5.80;;
11699;SDS011;5906;51.660;6.674;2023-07-02T08:37:13;20.63;;;6.23;;
11699;SDS011;5906;51.660;6.674;2023-07-02T08:39:40;12.40;;;5.70;;
11699;SDS011;5906;51.660;6.674;2023-07-02T08:42:07;14.43;;;5.30;;
11699;SDS011;5906;51.660;6.674;2023-07-02T08:44:34;10.90;;;5.00;;
11699;SDS011;5906;51.660;6.674;2023-07-02T08:47:02;15.47;;;5.57;;
11699;SDS011;5906;51.660;6.674;2023-07-02T08:49:30;14.10;;;6.83;;
11699;SDS011;5906;51.660;6.674;2023-07-02T08:54:47;13.70;;;6.50;;
11699;SDS011;5906;51.660;6.674;2023-07-02T08:57:14;14.53;;;5.67;;
11699;SDS011;5906;51.660;6.674;2023-07-02T08:59:41;11.77;;;5.43;;
11699;SDS011;5906;51.660;6.674;2023-07-02T09:02:08;13.80;;;5.67;;
11699;SDS011;5906;51.660;6.674;2023-07-02T09:04:34;12.03;;;5.20;;
11699;SDS011;5906;51.660;6.674;2023-07-02T09:07:03;11.50;;;5.67;;
11699;SDS011;5906;51.660;6.674;2023-07-02T09:09:31;8.97;;;4.37;;
11699;SDS011;5906;51.660;6.674;2023-07-02T09:11:59;16.57;;;5.87;;
11699;SDS011;5906;51.660;6.674;2023-07-02T09:14:30;12.37;;;5.60;;
11699;SDS011;5906;51.660;6.674;2023-07-02T09:17:07;13.77;;;6.50;;
11699;SDS011;5906;51.660;6.674;2023-07-02T09:19:36;11.30;;;5.60;;
11699;SDS011;5906;51.660;6.674;2023-07-02T09:22:15;14.60;;;6.70;;
11699;SDS011;5906;51.660;6.674;2023-07-02T09:24:50;10.10;;;5.33;;
11699;SDS011;5906;51.660;6.674;2023-07-02T09:27:21;13.70;;;6.47;;
11699;SDS011;5906;51.660;6.674;2023-07-02T09:30:04;15.50;;;6.23;;
11699;SDS011;5906;51.660;6.674;2023-07-02T09:32:33;12.67;;;5.87;;
11699;SDS011;5906;51.660;6.674;2023-07-02T09:35:00;13.77;;;6.37;;
11699;SDS011;5906;51.660;6.674;2023-07-02T09:37:28;21.77;;;6.97;;
11699;SDS011;5906;51.660;6.674;2023-07-02T09:39:55;27.63;;;6.10;;
11699;SDS011;5906;51.660;6.674;2023-07-02T09:42:24;14.57;;;7.10;;
11699;SDS011;5906;51.660;6.674;2023-07-02T09:44:52;16.30;;;6.60;;
11699;SDS011;5906;51.660;6.674;2023-07-02T09:47:22;21.90;;;6.60;;
11699;SDS011;5906;51.660;6.674;2023-07-02T09:49:53;14.50;;;5.80;;
11699;SDS011;5906;51.660;6.674;2023-07-02T09:52:24;17.00;;;6.30;;
11699;SDS011;5906;51.660;6.674;2023-07-02T09:54:54;20.33;;;6.13;;
11699;SDS011;5906;51.660;6.674;2023-07-02T09:57:21;15.60;;;5.60;;
11699;SDS011;5906;51.660;6.674;2023-07-02T09:59:48;22.03;;;6.60;;
11699;SDS011;5906;51.660;6.674;2023-07-02T10:02:16;12.03;;;5.53;;
11699;SDS011;5906;51.660;6.674;2023-07-02T10:04:45;12.77;;;5.63;;
11699;SDS011;5906;51.660;6.674;2023-07-02T10:07:25;17.20;;;6.27;;
11699;SDS011;5906;51.660;6.674;2023-07-02T10:09:56;16.93;;;5.63;;
11699;SDS011;5906;51.660;6.674;2023-07-02T10:12:24;12.33;;;5.73;;
11699;SDS011;5906;51.660;6.674;2023-07-02T10:14:53;15.97;;;5.83;;
11699;SDS011;5906;51.660;6.674;2023-07-02T10:20:06;10.57;;;5.10;;
11699;SDS011;5906;51.660;6.674;2023-07-02T10:22:43;16.73;;;5.73;;
11699;SDS011;5906;51.660;6.674;2023-07-02T10:25:11;9.10;;;4.97;;
11699;SDS011;5906;51.660;6.674;2023-07-02T10:27:42;11.90;;;5.87;;
11699;SDS011;5906;51.660;6.674;2023-07-02T10:30:09;13.87;;;5.73;;
11699;SDS011;5906;51.660;6.674;2023-07-02T10:32:37;9.37;;;5.63;;
11699;SDS011;5906;51.660;6.674;2023-07-02T10:35:17;12.83;;;5.73;;
11699;SDS011;5906;51.660;6.674;2023-07-02T10:37:45;9.50;;;5.47;;
11699;SDS011;5906;51.660;6.674;2023-07-02T10:40:12;14.30;;;5.80;;
11699;SDS011;5906;51.660;6.674;2023-07-02T10:42:50;12.73;;;5.87;;
11699;SDS011;5906;51.660;6.674;2023-07-02T10:45:18;11.77;;;5.67;;
11699;SDS011;5906;51.660;6.674;2023-07-02T10:47:46;13.40;;;5.40;;
11699;SDS011;5906;51.660;6.674;2023-07-02T10:50:20;11.40;;;5.23;;
11699;SDS011;5906;51.660;6.674;2023-07-02T10:52:48;13.80;;;5.50;;
11699;SDS011;5906;51.660;6.674;2023-07-02T10:55:17;10.53;;;5.47;;
11699;SDS011;5906;51.660;6.674;2023-07-02T10:57:49;11.83;;;5.43;;
11699;SDS011;5906;51.660;6.674;2023-07-02T11:00:19;16.03;;;5.53;;
11699;SDS011;5906;51.660;6.674;2023-07-02T11:02:46;13.03;;;6.00;;
11699;SDS011;5906;51.660;6.674;2023-07-02T11:05:15;13.40;;;6.07;;
11699;SDS011;5906;51.660;6.674;2023-07-02T11:07:42;12.93;;;5.80;;
11699;SDS011;5906;51.660;6.674;2023-07-02T11:10:10;11.63;;;5.80;;
11699;SDS011;5906;51.660;6.674;2023-07-02T11:12:43;14.20;;;5.53;;
11699;SDS011;5906;51.660;6.674;2023-07-02T11:15:14;9.60;;;5.10;;
11699;SDS011;5906;51.660;6.674;2023-07-02T11:17:43;8.90;;;5.30;;
11699;SDS011;5906;51.660;6.674;2023-07-02T11:20:12;13.40;;;6.27;;
11699;SDS011;5906;51.660;6.674;2023-07-02T11:22:40;10.77;;;5.67;;
11699;SDS011;5906;51.660;6.674;2023-07-02T11:25:08;14.17;;;5.87;;
11699;SDS011;5906;51.660;6.674;2023-07-02T11:27:40;13.13;;;5.10;;
11699;SDS011;5906;51.660;6.674;2023-07-02T11:30:07;13.73;;;6.43;;
11699;SDS011;5906;51.660;6.674;2023-07-02T11:32:45;9.60;;;4.90;;
11699;SDS011;5906;51.660;6.674;2023-07-02T11:35:16;10.63;;;5.20;;
11699;SDS011;5906;51.660;6.674;2023-07-02T11:37:44;14.63;;;5.63;;
11699;SDS011;5906;51.660;6.674;2023-07-02T11:40:12;13.60;;;5.50;;
11699;SDS011;5906;51.660;6.674;2023-07-02T11:42:40;12.47;;;5.83;;
11699;SDS011;5906;51.660;6.674;2023-07-02T11:45:07;17.63;;;6.20;;
11699;SDS011;5906;51.660;6.674;2023-07-02T11:47:35;17.50;;;6.20;;
11699;SDS011;5906;51.660;6.674;2023-07-02T11:50:02;10.23;;;5.20;;
11699;SDS011;5906;51.660;6.674;2023-07-02T11:52:46;11.80;;;5.93;;
11699;SDS011;5906;51.660;6.674;2023-07-02T11:55:13;10.70;;;5.10;;
11699;SDS011;5906;51.660;6.674;2023-07-02T11:57:44;15.33;;;5.93;;
11699;SDS011;5906;51.660;6.674;2023-07-02T12:00:13;9.40;;;5.37;;
11699;SDS011;5906;51.660;6.674;2023-07-02T12:02:40;11.00;;;5.37;;
11699;SDS011;5906;51.660;6.674;2023-07-02T12:05:08;10.27;;;5.00;;
11699;SDS011;5906;51.660;6.674;2023-07-02T12:07:38;13.37;;;5.80;;
11699;SDS011;5906;51.660;6.674;2023-07-02T12:10:06;10.73;;;5.67;;
11699;SDS011;5906;51.660;6.674;2023-07-02T12:12:34;13.97;;;6.40;;
11699;SDS011;5906;51.660;6.674;2023-07-02T12:15:01;14.23;;;5.40;;
11699;SDS011;5906;51.660;6.674;2023-07-02T12:17:28;12.53;;;5.97;;
11699;SDS011;5906;51.660;6.674;2023-07-02T12:19:56;13.17;;;6.63;;
11699;SDS011;5906;51.660;6.674;2023-07-02T12:22:24;16.50;;;5.90;;
11699;SDS011;5906;51.660;6.674;2023-07-02T12:24:51;10.37;;;5.30;;
11699;SDS011;5906;51.660;6.674;2023-07-02T12:27:22;11.10;;;5.70;;
11699;SDS011;5906;51.660;6.674;2023-07-02T12:29:49;16.33;;;6.50;;
11699;SDS011;5906;51.660;6.674;2023-07-02T12:32:16;8.63;;;5.57;;
11699;SDS011;5906;51.660;6.674;2023-07-02T12:34:43;12.17;;;6.23;;
11699;SDS011;5906;51.660;6.674;2023-07-02T12:37:10;11.43;;;5.73;;
11699;SDS011;5906;51.660;6.674;2023-07-02T12:39:40;11.93;;;6.73;;
11699;SDS011;5906;51.660;6.674;2023-07-02T12:42:07;16.50;;;5.93;;
11699;SDS011;5906;51.660;6.674;2023-07-02T12:44:34;14.47;;;5.67;;
11699;SDS011;5906;51.660;6.674;2023-07-02T12:47:01;13.30;;;6.03;;
11699;SDS011;5906;51.660;6.674;2023-07-02T12:49:28;18.20;;;5.93;;
11699;SDS011;5906;51.660;6.674;2023-07-02T12:51:55;12.70;;;6.20;;
11699;SDS011;5906;51.660;6.674;2023-07-02T12:54:21;15.40;;;6.33;;
11699;SDS011;5906;51.660;6.674;2023-07-02T12:56:48;17.20;;;5.90;;
11699;SDS011;5906;51.660;6.674;2023-07-02T12:59:15;11.80;;;5.73;;
11699;SDS011;5906;51.660;6.674;2023-07-02T13:01:43;16.60;;;7.10;;
11699;SDS011;5906;51.660;6.674;2023-07-02T13:04:11;16.43;;;5.97;;
11699;SDS011;5906;51.660;6.674;2023-07-02T13:06:38;13.20;;;6.30;;
11699;SDS011;5906;51.660;6.674;2023-07-02T13:09:07;13.47;;;5.47;;
11699;SDS011;5906;51.660;6.674;2023-07-02T13:11:34;13.17;;;6.30;;
11699;SDS011;5906;51.660;6.674;2023-07-02T13:14:02;13.80;;;6.87;;
11699;SDS011;5906;51.660;6.674;2023-07-02T13:16:29;14.50;;;6.50;;
11699;SDS011;5906;51.660;6.674;2023-07-02T13:18:56;16.90;;;6.23;;
11699;SDS011;5906;51.660;6.674;2023-07-02T13:21:23;20.60;;;6.17;;
11699;SDS011;5906;51.660;6.674;2023-07-02T13:23:50;13.70;;;5.97;;
11699;SDS011;5906;51.660;6.674;2023-07-02T13:26:17;17.20;;;6.50;;
11699;SDS011;5906;51.660;6.674;2023-07-02T13:28:44;13.60;;;6.33;;
11699;SDS011;5906;51.660;6.674;2023-07-02T13:31:14;14.13;;;6.10;;
11699;SDS011;5906;51.660;6.674;2023-07-02T13:33:42;12.63;;;6.43;;
11699;SDS011;5906;51.660;6.674;2023-07-02T13:36:09;15.50;;;7.03;;
11699;SDS011;5906;51.660;6.674;2023-07-02T13:38:37;11.83;;;6.33;;
11699;SDS011;5906;51.660;6.674;2023-07-02T13:41:04;15.43;;;6.50;;
11699;SDS011;5906;51.660;6.674;2023-07-02T13:43:31;13.20;;;6.23;;
11699;SDS011;5906;51.660;6.674;2023-07-02T13:45:58;18.03;;;6.47;;
11699;SDS011;5906;51.660;6.674;2023-07-02T13:48:25;13.10;;;6.40;;
11699;SDS011;5906;51.660;6.674;2023-07-02T13:50:54;15.60;;;6.50;;
11699;SDS011;5906;51.660;6.674;2023-07-02T13:53:21;13.47;;;6.10;;
11699;SDS011;5906;51.660;6.674;2023-07-02T13:55:48;17.70;;;6.00;;
11699;SDS011;5906;51.660;6.674;2023-07-02T13:58:16;14.73;;;6.80;;
11699;SDS011;5906;51.660;6.674;2023-07-02T14:00:54;13.40;;;7.33;;
11699;SDS011;5906;51.660;6.674;2023-07-02T14:03:21;17.20;;;6.97;;
11699;SDS011;5906;51.660;6.674;2023-07-02T14:05:49;25.63;;;7.07;;
11699;SDS011;5906;51.660;6.674;2023-07-02T14:08:17;14.43;;;6.70;;
11699;SDS011;5906;51.660;6.674;2023-07-02T14:10:47;17.30;;;5.90;;
11699;SDS011;5906;51.660;6.674;2023-07-02T14:13:14;19.73;;;7.23;;
11699;SDS011;5906;51.660;6.674;2023-07-02T14:15:41;14.40;;;6.17;;
11699;SDS011;5906;51.660;6.674;2023-07-02T14:18:08;12.07;;;5.43;;
11699;SDS011;5906;51.660;6.674;2023-07-02T14:20:35;13.37;;;5.80;;
11699;SDS011;5906;51.660;6.674;2023-07-02T14:23:02;14.80;;;6.03;;
11699;SDS011;5906;51.660;6.674;2023-07-02T14:25:29;11.40;;;6.00;;
11699;SDS011;5906;51.660;6.674;2023-07-02T14:28:06;11.53;;;5.30;;
11699;SDS011;5906;51.660;6.674;2023-07-02T14:30:34;19.57;;;6.03;;
11699;SDS011;5906;51.660;6.674;2023-07-02T14:33:01;12.77;;;5.50;;
11699;SDS011;5906;51.660;6.674;2023-07-02T14:35:28;18.60;;;6.40;;
11699;SDS011;5906;51.660;6.674;2023-07-02T14:37:57;16.23;;;6.60;;
11699;SDS011;5906;51.660;6.674;2023-07-02T14:40:24;10.83;;;5.43;;
11699;SDS011;5906;51.660;6.674;2023-07-02T14:42:52;17.37;;;6.53;;
11699;SDS011;5906;51.660;6.674;2023-07-02T14:45:19;13.03;;;5.90;;
11699;SDS011;5906;51.660;6.674;2023-07-02T14:47:46;24.37;;;6.40;;
11699;SDS011;5906;51.660;6.674;2023-07-02T14:50:13;10.93;;;5.30;;
11699;SDS011;5906;51.660;6.674;2023-07-02T14:52:44;19.60;;;6.13;;
11699;SDS011;5906;51.660;6.674;2023-07-02T14:55:11;13.07;;;5.30;;
11699;SDS011;5906;51.660;6.674;2023-07-02T14:57:38;11.43;;;5.10;;
11699;SDS011;5906;51.660;6.674;2023-07-02T15:00:05;8.30;;;4.60;;